Montserrat, Missouri
Current Conditions -  °F | °C
As of 6:58 AM on Friday 19 Dec 2014 (Local Time) from KSZL Reporting Station
Moderate Fog Moderate Fog  
Wind Chill: 28°   Ceiling: 200
Heat Index: 32°   Visibility: 0.25mi
Dew Point: 31°   Wind: 5mph
Humidity: 97%   Direction: 60°ENE
Pressure: 30.26"   Gusts: NA
Location:  38.673°N, 93.5632°W
Report Text: KSZL 191258Z 06004KT 1/4SM R01/1200FT FG VV002 00/00 A3026 RMK AO2A SLP258 T00011003 $
Loading
Personal Weather Stations






























Interactive Weather Map New forecast layout! Learn more

10-Day Weather Forecast

Advertisements
Track Severe Weather on mobile